Time;durP1;ratioP1;P1;durP2;ratioP2;P2;SDS_P1;SDS_P2;PMS_P1;PMS_P2;Temp;Humidity;BMP_temperature;BMP_pressure;BME280_temperature;BME280_humidity;BME280_pressure;Samples;Min_cycle;Max_cycle;Signal;HPM_P1;HPM_P2
2023/04/25 00:00:06;;;;;;;11.85;5.20;;;;;;;;;;5039040;28;20065;-58
2023/04/25 00:02:39;;;;;;;10.30;4.97;;;;;;;;;;5041746;28;20025;-58
2023/04/25 00:05:05;;;;;;;9.15;5.03;;;;;;;;;;5042252;28;20025;-58
2023/04/25 00:07:32;;;;;;;15.68;5.47;;;;;;;;;;5043415;28;20045;-57
2023/04/25 00:09:58;;;;;;;12.10;4.88;;;;;;;;;;5043625;28;20049;-57
2023/04/25 00:12:24;;;;;;;7.60;4.68;;;;;;;;;;5038442;28;20403;-57
2023/04/25 00:14:51;;;;;;;10.85;5.05;;;;;;;;;;5038072;28;20034;-57
2023/04/25 00:17:17;;;;;;;11.88;4.85;;;;;;;;;;5040170;28;20045;-58
2023/04/25 00:19:44;;;;;;;10.45;5.03;;;;;;;;;;5040426;28;20045;-57
2023/04/25 00:22:11;;;;;;;8.40;4.97;;;;;;;;;;5038941;28;20387;-57
2023/04/25 00:24:37;;;;;;;9.50;5.25;;;;;;;;;;5043389;28;20384;-57
2023/04/25 00:27:03;;;;;;;9.07;4.65;;;;;;;;;;5044161;28;20033;-56
2023/04/25 00:29:30;;;;;;;9.95;4.88;;;;;;;;;;5045890;28;20044;-56
2023/04/25 00:31:56;;;;;;;11.60;5.85;;;;;;;;;;5033862;28;20052;-57
2023/04/25 00:34:22;;;;;;;12.70;5.40;;;;;;;;;;5040529;28;20629;-57
2023/04/25 00:36:48;;;;;;;11.05;5.07;;;;;;;;;;5037486;28;20042;-57
2023/04/25 00:39:14;;;;;;;8.15;5.30;;;;;;;;;;5040880;28;20041;-57
2023/04/25 00:41:40;;;;;;;12.15;5.55;;;;;;;;;;5041624;28;20056;-57
2023/04/25 00:44:11;;;;;;;9.73;5.22;;;;;;;;;;5042783;28;20459;-57
2023/04/25 00:46:38;;;;;;;10.45;5.32;;;;;;;;;;5042506;28;20025;-57
2023/04/25 00:49:06;;;;;;;8.68;5.28;;;;;;;;;;5042385;28;20040;-56
2023/04/25 00:51:33;;;;;;;9.38;5.35;;;;;;;;;;5044997;28;20033;-57
2023/04/25 00:53:59;;;;;;;14.50;5.28;;;;;;;;;;5048424;28;20329;-56
2023/04/25 00:56:26;;;;;;;13.38;5.30;;;;;;;;;;5045534;28;20041;-57
2023/04/25 00:58:56;;;;;;;11.43;5.25;;;;;;;;;;5040632;28;20060;-56
2023/04/25 01:01:22;;;;;;;10.25;4.97;;;;;;;;;;5045409;28;20402;-56
2023/04/25 01:03:49;;;;;;;11.68;5.82;;;;;;;;;;5032625;28;20029;-56
2023/04/25 01:06:16;;;;;;;13.43;5.97;;;;;;;;;;5041471;28;20049;-56
2023/04/25 01:08:43;;;;;;;11.38;5.10;;;;;;;;;;5044143;28;20064;-57
2023/04/25 01:11:09;;;;;;;13.73;5.53;;;;;;;;;;5053983;28;20126;-56
2023/04/25 01:13:36;;;;;;;13.57;4.97;;;;;;;;;;5049057;28;20052;-56
2023/04/25 01:16:03;;;;;;;11.15;5.15;;;;;;;;;;5043560;28;20045;-57
2023/04/25 01:18:29;;;;;;;10.35;5.63;;;;;;;;;;5039629;28;20048;-57
2023/04/25 01:20:55;;;;;;;12.05;5.07;;;;;;;;;;5047612;28;20056;-57
2023/04/25 01:23:22;;;;;;;12.13;5.57;;;;;;;;;;5046704;28;20371;-57
2023/04/25 01:25:50;;;;;;;9.85;5.43;;;;;;;;;;5044683;28;20063;-56
2023/04/25 01:28:16;;;;;;;10.77;5.20;;;;;;;;;;5044454;28;20053;-57
2023/04/25 01:30:43;;;;;;;14.85;5.70;;;;;;;;;;5037935;28;20399;-57
2023/04/25 01:33:10;;;;;;;11.65;5.00;;;;;;;;;;5038725;28;20078;-56
2023/04/25 01:35:37;;;;;;;10.02;5.20;;;;;;;;;;5041755;28;20487;-57
2023/04/25 01:38:03;;;;;;;13.85;5.60;;;;;;;;;;5042697;28;20068;-57
2023/04/25 01:40:30;;;;;;;10.82;5.60;;;;;;;;;;5041238;28;20029;-58
2023/04/25 01:42:57;;;;;;;9.82;5.28;;;;;;;;;;5041281;28;20180;-57
2023/04/25 01:45:23;;;;;;;12.38;5.97;;;;;;;;;;5044509;28;20036;-57
2023/04/25 01:47:51;;;;;;;9.95;5.30;;;;;;;;;;5040542;28;20585;-57
2023/04/25 01:50:18;;;;;;;9.90;5.43;;;;;;;;;;5044536;28;20033;-56
2023/04/25 01:52:45;;;;;;;11.00;5.50;;;;;;;;;;5043410;28;20045;-57
2023/04/25 01:55:12;;;;;;;15.07;5.88;;;;;;;;;;5037544;28;20029;-57
2023/04/25 01:57:43;;;;;;;10.65;4.78;;;;;;;;;;5039676;28;20045;-58
2023/04/25 02:00:11;;;;;;;12.18;5.60;;;;;;;;;;5039794;28;20037;-57
2023/04/25 02:02:40;;;;;;;9.98;5.65;;;;;;;;;;5042212;28;20033;-57
2023/04/25 02:05:27;;;;;;;13.45;5.93;;;;;;;;;;5043319;28;20048;-57
2023/04/25 02:07:53;;;;;;;10.43;5.07;;;;;;;;;;5041500;28;20033;-57
2023/04/25 02:10:19;;;;;;;12.05;5.30;;;;;;;;;;5036418;28;20040;-57
2023/04/25 02:13:03;;;;;;;10.85;5.60;;;;;;;;;;5045738;28;20059;-57
2023/04/25 02:15:49;;;;;;;11.32;5.47;;;;;;;;;;5042135;28;20048;-57
2023/04/25 02:18:19;;;;;;;12.27;5.18;;;;;;;;;;5035931;28;20037;-56
2023/04/25 02:20:45;;;;;;;11.13;5.28;;;;;;;;;;5035568;28;20491;-56
2023/04/25 02:23:11;;;;;;;9.63;5.32;;;;;;;;;;5033433;28;20029;-58
2023/04/25 02:25:37;;;;;;;9.32;5.00;;;;;;;;;;5041412;28;20032;-58
2023/04/25 02:28:03;;;;;;;9.30;5.50;;;;;;;;;;5040446;28;20040;-59
2023/04/25 02:30:29;;;;;;;13.68;5.43;;;;;;;;;;5041415;28;20036;-58
2023/04/25 02:32:56;;;;;;;11.50;5.78;;;;;;;;;;5039855;28;20490;-58
2023/04/25 02:35:22;;;;;;;21.85;5.85;;;;;;;;;;5043765;28;20520;-58
2023/04/25 02:37:48;;;;;;;10.75;6.22;;;;;;;;;;5042009;28;20039;-58
2023/04/25 02:40:14;;;;;;;11.93;5.68;;;;;;;;;;5034962;28;20041;-58
2023/04/25 02:42:41;;;;;;;13.05;5.72;;;;;;;;;;5036923;28;20040;-58
2023/04/25 02:45:07;;;;;;;12.43;6.00;;;;;;;;;;5039601;28;20530;-57
2023/04/25 02:47:34;;;;;;;11.32;6.10;;;;;;;;;;5039066;28;20045;-58
2023/04/25 02:50:00;;;;;;;13.68;5.57;;;;;;;;;;5041067;28;20057;-57
2023/04/25 02:52:26;;;;;;;10.52;5.45;;;;;;;;;;5036965;28;20037;-57
2023/04/25 02:54:59;;;;;;;13.90;5.65;;;;;;;;;;5040782;28;20044;-57
2023/04/25 02:57:27;;;;;;;10.20;5.22;;;;;;;;;;5049879;28;20044;-57
2023/04/25 02:59:53;;;;;;;13.15;5.60;;;;;;;;;;5050573;28;20044;-57
2023/04/25 03:02:19;;;;;;;8.73;5.55;;;;;;;;;;5047726;28;20105;-57
2023/04/25 03:04:45;;;;;;;9.02;5.15;;;;;;;;;;5044976;28;20036;-58
2023/04/25 03:07:12;;;;;;;11.65;6.03;;;;;;;;;;5047815;28;20041;-57
2023/04/25 03:09:38;;;;;;;11.88;5.43;;;;;;;;;;5046307;28;20029;-57
2023/04/25 03:12:04;;;;;;;11.52;5.80;;;;;;;;;;5047795;28;20039;-57
2023/04/25 03:14:32;;;;;;;12.65;5.65;;;;;;;;;;5044281;28;20052;-57
2023/04/25 03:16:59;;;;;;;15.32;5.72;;;;;;;;;;5052309;28;20037;-57
2023/04/25 03:19:25;;;;;;;13.70;5.90;;;;;;;;;;5043558;28;20041;-57
2023/04/25 03:21:51;;;;;;;9.25;5.35;;;;;;;;;;5038954;28;20044;-57
2023/04/25 03:24:17;;;;;;;11.93;6.13;;;;;;;;;;5047112;28;20037;-57
2023/04/25 03:26:43;;;;;;;9.43;5.80;;;;;;;;;;5030487;28;20029;-57
2023/04/25 03:29:09;;;;;;;12.82;5.88;;;;;;;;;;5044483;28;20049;-57
2023/04/25 03:31:37;;;;;;;12.70;5.95;;;;;;;;;;5051845;28;20032;-57
2023/04/25 03:34:04;;;;;;;12.73;5.82;;;;;;;;;;5047582;28;20040;-57
2023/04/25 03:36:30;;;;;;;13.38;6.13;;;;;;;;;;5038797;28;20070;-57
2023/04/25 03:38:56;;;;;;;12.95;5.55;;;;;;;;;;5038731;28;20048;-57
2023/04/25 03:41:23;;;;;;;10.25;5.38;;;;;;;;;;5048484;28;20401;-56
2023/04/25 03:43:55;;;;;;;13.00;5.97;;;;;;;;;;5041630;28;20387;-56
2023/04/25 03:46:22;;;;;;;10.65;5.88;;;;;;;;;;5041388;28;20034;-57
2023/04/25 03:48:48;;;;;;;10.10;5.57;;;;;;;;;;5044922;28;20410;-57
2023/04/25 03:51:20;;;;;;;9.88;5.57;;;;;;;;;;5036897;28;20040;-57
2023/04/25 03:53:47;;;;;;;12.93;5.88;;;;;;;;;;5041102;28;20105;-57
2023/04/25 03:56:20;;;;;;;7.20;4.70;;;;;;;;;;5040723;28;20036;-57
2023/04/25 03:58:50;;;;;;;9.38;5.70;;;;;;;;;;5022828;28;20482;-57
2023/04/25 04:01:19;;;;;;;9.98;4.70;;;;;;;;;;5035504;28;20033;-56
2023/04/25 04:03:45;;;;;;;9.15;4.80;;;;;;;;;;5040658;28;20033;-57
2023/04/25 04:06:12;;;;;;;9.73;4.90;;;;;;;;;;5042222;28;20036;-58
2023/04/25 04:08:42;;;;;;;14.65;5.97;;;;;;;;;;5044465;28;20049;-57
2023/04/25 04:11:10;;;;;;;8.45;4.75;;;;;;;;;;5045682;28;20051;-56
2023/04/25 04:13:36;;;;;;;14.30;5.47;;;;;;;;;;5047571;28;20056;-57
2023/04/25 04:16:04;;;;;;;10.75;4.78;;;;;;;;;;5046706;28;20041;-57
2023/04/25 04:18:30;;;;;;;12.95;5.10;;;;;;;;;;5043048;28;20430;-57
2023/04/25 04:20:58;;;;;;;9.27;4.70;;;;;;;;;;5046791;28;20048;-57
2023/04/25 04:23:26;;;;;;;6.72;4.57;;;;;;;;;;5047913;28;20037;-57
2023/04/25 04:25:54;;;;;;;9.23;4.80;;;;;;;;;;5050058;28;20111;-57
2023/04/25 04:28:32;;;;;;;8.20;5.10;;;;;;;;;;5041186;28;20037;-58
2023/04/25 04:31:12;;;;;;;15.95;4.85;;;;;;;;;;5041873;28;20032;-58
2023/04/25 04:33:38;;;;;;;13.65;5.57;;;;;;;;;;5049952;28;20069;-58
2023/04/25 04:36:07;;;;;;;8.98;4.85;;;;;;;;;;5046247;28;20037;-58
2023/04/25 04:38:33;;;;;;;13.43;5.10;;;;;;;;;;5020948;28;20517;-58
2023/04/25 04:41:03;;;;;;;12.75;5.38;;;;;;;;;;5041970;28;20045;-58
2023/04/25 04:43:40;;;;;;;15.68;6.43;;;;;;;;;;5034519;28;20049;-59
2023/04/25 04:46:25;;;;;;;16.15;6.43;;;;;;;;;;5041104;28;20041;-58
2023/04/25 04:49:12;;;;;;;12.48;5.78;;;;;;;;;;5044545;28;20192;-58
2023/04/25 04:52:01;;;;;;;13.38;6.10;;;;;;;;;;5039581;28;20037;-58
2023/04/25 04:54:50;;;;;;;13.07;6.63;;;;;;;;;;5042363;28;20041;-58
2023/04/25 04:57:28;;;;;;;12.48;6.13;;;;;;;;;;5043136;28;20041;-58
2023/04/25 05:00:17;;;;;;;10.13;5.53;;;;;;;;;;5042800;28;20060;-58
2023/04/25 05:02:44;;;;;;;13.20;6.40;;;;;;;;;;5041947;28;20033;-58
2023/04/25 05:05:23;;;;;;;23.23;6.40;;;;;;;;;;5050779;28;20044;-57
2023/04/25 05:08:07;;;;;;;12.05;6.30;;;;;;;;;;5053048;28;20052;-57
2023/04/25 05:10:53;;;;;;;16.85;6.35;;;;;;;;;;5051785;28;20028;-58
2023/04/25 05:13:30;;;;;;;13.88;5.90;;;;;;;;;;5052934;28;20037;-58
2023/04/25 05:16:19;;;;;;;12.50;6.28;;;;;;;;;;5049052;28;20033;-59
2023/04/25 05:18:55;;;;;;;16.52;7.13;;;;;;;;;;5047275;28;20029;-59
2023/04/25 05:21:43;;;;;;;14.93;6.05;;;;;;;;;;5050936;28;20049;-57
2023/04/25 05:24:27;;;;;;;14.02;5.97;;;;;;;;;;5032406;28;20033;-58
2023/04/25 05:27:12;;;;;;;25.27;8.98;;;;;;;;;;5048099;28;20028;-58
2023/04/25 05:30:09;;;;;;;15.98;7.80;;;;;;;;;;5035258;28;20056;-58
2023/04/25 05:32:47;;;;;;;17.25;6.50;;;;;;;;;;5052209;28;20095;-58
2023/04/25 05:35:13;;;;;;;19.50;7.85;;;;;;;;;;5046269;28;20049;-58
2023/04/25 05:37:44;;;;;;;16.23;7.63;;;;;;;;;;5046590;28;20032;-58
2023/04/25 05:40:13;;;;;;;15.07;7.75;;;;;;;;;;5044270;28;20052;-58
2023/04/25 05:42:58;;;;;;;11.77;6.20;;;;;;;;;;5043991;28;20033;-58
2023/04/25 05:45:41;;;;;;;14.15;6.05;;;;;;;;;;5040250;28;20403;-59
2023/04/25 05:48:30;;;;;;;16.70;6.85;;;;;;;;;;5048794;28;20048;-59
2023/04/25 05:51:01;;;;;;;17.08;6.93;;;;;;;;;;5046490;28;20544;-58
2023/04/25 05:53:53;;;;;;;13.93;7.50;;;;;;;;;;5037185;28;20037;-59
2023/04/25 05:56:19;;;;;;;13.02;6.80;;;;;;;;;;5047120;28;20036;-58
2023/04/25 05:58:48;;;;;;;15.90;7.07;;;;;;;;;;5044298;28;20052;-57
2023/04/25 06:01:14;;;;;;;12.38;6.82;;;;;;;;;;5050525;28;20041;-58
2023/04/25 06:03:42;;;;;;;14.10;6.68;;;;;;;;;;5046977;28;20036;-57
2023/04/25 06:06:11;;;;;;;16.10;7.10;;;;;;;;;;5049071;28;20049;-58
2023/04/25 06:08:38;;;;;;;14.10;6.55;;;;;;;;;;5048735;28;20041;-58
2023/04/25 06:11:04;;;;;;;11.27;5.97;;;;;;;;;;5042323;28;20375;-58
2023/04/25 06:13:31;;;;;;;14.75;7.05;;;;;;;;;;5049012;28;20396;-58
2023/04/25 06:15:57;;;;;;;16.63;7.72;;;;;;;;;;5056617;28;20040;-58
2023/04/25 06:18:23;;;;;;;13.23;7.35;;;;;;;;;;5051185;28;20048;-58
2023/04/25 06:20:50;;;;;;;14.13;7.03;;;;;;;;;;5051212;28;20049;-58
2023/04/25 06:23:17;;;;;;;12.38;6.28;;;;;;;;;;5027674;28;20510;-58
2023/04/25 06:26:09;;;;;;;11.02;6.10;;;;;;;;;;5045686;28;20045;-57
2023/04/25 06:28:39;;;;;;;12.90;6.33;;;;;;;;;;5046809;28;20029;-58
2023/04/25 06:31:05;;;;;;;14.13;6.28;;;;;;;;;;5048278;28;20521;-58
2023/04/25 06:33:31;;;;;;;19.05;7.35;;;;;;;;;;5044953;28;20418;-58
2023/04/25 06:35:57;;;;;;;16.58;7.50;;;;;;;;;;5047638;28;20049;-58
2023/04/25 06:38:26;;;;;;;17.80;6.72;;;;;;;;;;5042278;28;20504;-58
2023/04/25 06:40:55;;;;;;;19.00;7.20;;;;;;;;;;5038893;28;20029;-58
2023/04/25 06:43:21;;;;;;;10.60;5.82;;;;;;;;;;5042848;28;20056;-58
2023/04/25 06:46:26;;;;;;;15.82;5.63;;;;;;;;;;5063484;28;20051;-58
2023/04/25 06:48:54;;;;;;;9.85;5.03;;;;;;;;;;5050231;28;20052;-59
2023/04/25 06:51:21;;;;;;;13.07;5.00;;;;;;;;;;5049261;28;20064;-58
2023/04/25 06:53:48;;;;;;;9.48;5.38;;;;;;;;;;5047623;28;20407;-59
2023/04/25 06:56:24;;;;;;;13.18;6.03;;;;;;;;;;5043315;28;20045;-59
2023/04/25 06:59:00;;;;;;;9.60;4.97;;;;;;;;;;5048210;28;20403;-59
2023/04/25 07:01:35;;;;;;;8.50;4.95;;;;;;;;;;5049365;28;20051;-57
2023/04/25 07:04:05;;;;;;;9.90;5.03;;;;;;;;;;5049993;28;20040;-59
2023/04/25 07:06:33;;;;;;;13.18;5.47;;;;;;;;;;5049264;28;20478;-60
2023/04/25 07:08:59;;;;;;;11.57;4.85;;;;;;;;;;5051474;28;20045;-59
2023/04/25 07:11:26;;;;;;;9.98;5.00;;;;;;;;;;5047814;28;20041;-59
2023/04/25 07:13:52;;;;;;;11.23;4.65;;;;;;;;;;5048809;28;20037;-58
2023/04/25 07:16:18;;;;;;;11.98;5.35;;;;;;;;;;5047767;28;20045;-58
2023/04/25 07:18:45;;;;;;;13.55;6.18;;;;;;;;;;5048006;28;20037;-58
2023/04/25 07:21:12;;;;;;;10.90;5.47;;;;;;;;;;5050930;28;20048;-59
2023/04/25 07:23:40;;;;;;;10.25;5.85;;;;;;;;;;5045367;28;20068;-59
2023/04/25 07:26:11;;;;;;;10.07;4.97;;;;;;;;;;5032019;28;20053;-58
2023/04/25 07:28:49;;;;;;;13.60;5.97;;;;;;;;;;5049610;28;20060;-58
2023/04/25 07:31:17;;;;;;;11.13;5.60;;;;;;;;;;5045519;28;20053;-59
2023/04/25 07:33:46;;;;;;;12.25;5.40;;;;;;;;;;5046915;28;20517;-59
2023/04/25 07:36:15;;;;;;;11.13;6.03;;;;;;;;;;5043823;28;20049;-59
2023/04/25 07:38:41;;;;;;;11.80;6.63;;;;;;;;;;5042424;28;20514;-59
2023/04/25 07:41:08;;;;;;;15.85;6.72;;;;;;;;;;5044704;28;20060;-59
2023/04/25 07:43:34;;;;;;;13.93;6.82;;;;;;;;;;5043960;28;20053;-61
2023/04/25 07:46:00;;;;;;;15.60;6.65;;;;;;;;;;5043382;28;20076;-59
2023/04/25 07:48:30;;;;;;;16.15;7.80;;;;;;;;;;5049121;28;20048;-59
2023/04/25 07:50:56;;;;;;;14.68;6.45;;;;;;;;;;5052664;28;20045;-59
2023/04/25 07:53:22;;;;;;;13.32;6.55;;;;;;;;;;5047758;28;20402;-60
2023/04/25 07:55:53;;;;;;;12.27;6.28;;;;;;;;;;5045221;28;20120;-58
2023/04/25 07:58:21;;;;;;;14.07;6.32;;;;;;;;;;5050059;28;20512;-58
2023/04/25 08:00:50;;;;;;;15.98;6.10;;;;;;;;;;5057477;28;20048;-59
2023/04/25 08:03:42;;;;;;;18.67;6.72;;;;;;;;;;5048353;28;20037;-58
2023/04/25 08:06:15;;;;;;;13.00;6.30;;;;;;;;;;5052526;28;20048;-58
2023/04/25 08:08:50;;;;;;;18.48;8.25;;;;;;;;;;5053028;28;20025;-59
2023/04/25 08:11:19;;;;;;;13.60;7.15;;;;;;;;;;5038367;28;20040;-58
2023/04/25 08:13:45;;;;;;;16.27;7.28;;;;;;;;;;5047537;28;20043;-59
2023/04/25 08:16:12;;;;;;;23.83;10.00;;;;;;;;;;5054097;28;20044;-59
2023/04/25 08:18:38;;;;;;;30.30;12.98;;;;;;;;;;5048279;28;20408;-59
2023/04/25 08:21:04;;;;;;;29.00;12.43;;;;;;;;;;5048331;28;20064;-59
2023/04/25 08:23:31;;;;;;;19.05;8.95;;;;;;;;;;5049631;28;20044;-59
2023/04/25 08:26:13;;;;;;;17.27;8.77;;;;;;;;;;5050737;28;20036;-59
2023/04/25 08:28:42;;;;;;;23.30;9.88;;;;;;;;;;5035295;28;20693;-59
2023/04/25 08:31:08;;;;;;;19.85;8.65;;;;;;;;;;5042646;28;20048;-59
2023/04/25 08:33:44;;;;;;;25.50;12.05;;;;;;;;;;5052798;28;20036;-58
2023/04/25 08:36:25;;;;;;;17.95;9.38;;;;;;;;;;5048803;28;20045;-59
2023/04/25 08:38:51;;;;;;;19.42;8.02;;;;;;;;;;5042902;28;20033;-58
2023/04/25 08:41:20;;;;;;;11.77;7.03;;;;;;;;;;5043541;28;20038;-60
2023/04/25 08:43:48;;;;;;;13.63;6.78;;;;;;;;;;5045019;28;20423;-58
2023/04/25 08:46:17;;;;;;;13.20;7.13;;;;;;;;;;5047080;28;20044;-59
2023/04/25 08:49:07;;;;;;;15.15;8.00;;;;;;;;;;5051517;28;20037;-60
2023/04/25 08:51:35;;;;;;;14.55;7.20;;;;;;;;;;5047407;28;20036;-60
2023/04/25 08:54:11;;;;;;;15.05;7.90;;;;;;;;;;5029931;28;20410;-60
2023/04/25 08:56:47;;;;;;;20.13;8.38;;;;;;;;;;5047280;28;20072;-61
2023/04/25 08:59:14;;;;;;;24.75;10.20;;;;;;;;;;5053534;28;20036;-59
2023/04/25 09:01:41;;;;;;;16.48;8.13;;;;;;;;;;5050009;28;20036;-59
2023/04/25 09:04:08;;;;;;;16.63;8.40;;;;;;;;;;5048034;28;20036;-60
2023/04/25 09:06:34;;;;;;;12.23;7.20;;;;;;;;;;5050651;28;20052;-59
2023/04/25 09:09:04;;;;;;;13.65;6.93;;;;;;;;;;5054420;28;20042;-59
2023/04/25 09:11:32;;;;;;;9.38;5.88;;;;;;;;;;5037249;28;20049;-59
2023/04/25 09:14:12;;;;;;;8.68;5.43;;;;;;;;;;5049323;28;20056;-59
2023/04/25 09:17:04;;;;;;;12.18;6.63;;;;;;;;;;5054018;28;20044;-59
2023/04/25 09:19:46;;;;;;;11.18;6.45;;;;;;;;;;5045065;28;20048;-59
2023/04/25 09:22:39;;;;;;;6.95;4.90;;;;;;;;;;5051308;28;20044;-60
2023/04/25 09:25:09;;;;;;;7.78;5.28;;;;;;;;;;5052719;28;20051;-59
2023/04/25 09:27:35;;;;;;;6.43;4.50;;;;;;;;;;5048783;28;20379;-59
2023/04/25 09:30:16;;;;;;;6.35;3.78;;;;;;;;;;5043670;28;20053;-58
2023/04/25 09:33:11;;;;;;;5.97;4.50;;;;;;;;;;5042418;28;20047;-59
2023/04/25 09:35:43;;;;;;;11.32;5.47;;;;;;;;;;5041857;28;20051;-59
2023/04/25 09:38:18;;;;;;;6.38;4.57;;;;;;;;;;5042060;28;20044;-58
2023/04/25 09:41:09;;;;;;;6.07;3.72;;;;;;;;;;5039965;28;20048;-59
2023/04/25 09:43:45;;;;;;;5.28;3.20;;;;;;;;;;5037750;28;20063;-59
2023/04/25 09:46:12;;;;;;;4.05;3.15;;;;;;;;;;5041858;28;20238;-59
2023/04/25 09:48:49;;;;;;;4.00;3.10;;;;;;;;;;5046276;28;20025;-59
2023/04/25 09:51:16;;;;;;;2.53;2.33;;;;;;;;;;5033613;28;20036;-59
2023/04/25 09:53:50;;;;;;;2.60;2.40;;;;;;;;;;5033494;28;20041;-60
2023/04/25 09:56:28;;;;;;;2.80;2.45;;;;;;;;;;5050535;28;20036;-58
2023/04/25 09:58:55;;;;;;;5.00;3.33;;;;;;;;;;5049639;28;20044;-60
2023/04/25 10:01:22;;;;;;;3.92;3.15;;;;;;;;;;5048973;28;20041;-60
2023/04/25 10:04:10;;;;;;;5.32;3.85;;;;;;;;;;5052282;28;20037;-59
2023/04/25 10:06:54;;;;;;;5.47;4.00;;;;;;;;;;5045809;28;20037;-58
2023/04/25 10:09:23;;;;;;;8.23;5.18;;;;;;;;;;5047494;28;20053;-59
2023/04/25 10:11:50;;;;;;;5.47;4.10;;;;;;;;;;5052202;28;20043;-59
2023/04/25 10:14:18;;;;;;;7.63;4.60;;;;;;;;;;5051685;28;20294;-59
2023/04/25 10:16:45;;;;;;;5.93;4.07;;;;;;;;;;5047234;28;20032;-60
2023/04/25 10:19:13;;;;;;;5.55;3.72;;;;;;;;;;5045619;28;20070;-59
2023/04/25 10:22:20;;;;;;;5.80;3.60;;;;;;;;;;5047974;28;20045;-59
2023/04/25 10:24:47;;;;;;;5.63;3.80;;;;;;;;;;5057870;28;20044;-58
2023/04/25 10:27:13;;;;;;;6.20;3.22;;;;;;;;;;5043673;28;20049;-59
2023/04/25 10:29:43;;;;;;;4.20;3.10;;;;;;;;;;5050191;28;20033;-59
2023/04/25 10:32:09;;;;;;;2.60;2.00;;;;;;;;;;5047885;28;20348;-58
2023/04/25 10:34:42;;;;;;;2.10;1.90;;;;;;;;;;5043391;28;20399;-59
2023/04/25 10:37:10;;;;;;;1.90;1.60;;;;;;;;;;5040879;28;20049;-58
2023/04/25 10:39:39;;;;;;;2.80;1.85;;;;;;;;;;5046649;28;20502;-58
2023/04/25 10:42:07;;;;;;;3.25;1.90;;;;;;;;;;5043752;28;20040;-58
2023/04/25 10:44:34;;;;;;;2.75;2.53;;;;;;;;;;5043462;28;20084;-59
2023/04/25 10:47:02;;;;;;;2.00;1.77;;;;;;;;;;5042671;28;20049;-59
2023/04/25 10:49:31;;;;;;;2.17;1.73;;;;;;;;;;5051200;28;20037;-59
2023/04/25 10:52:17;;;;;;;2.73;1.77;;;;;;;;;;5050839;28;20041;-59
2023/04/25 10:54:54;;;;;;;1.40;1.30;;;;;;;;;;5046139;28;20040;-58
2023/04/25 10:57:37;;;;;;;2.20;2.10;;;;;;;;;;5049448;28;20036;-59
2023/04/25 11:00:10;;;;;;;3.60;2.50;;;;;;;;;;5043633;28;20421;-59
2023/04/25 11:02:41;;;;;;;2.47;2.28;;;;;;;;;;5043790;28;20041;-59
2023/04/25 11:05:07;;;;;;;2.88;2.60;;;;;;;;;;5047159;28;20037;-59
2023/04/25 11:07:38;;;;;;;3.47;2.55;;;;;;;;;;5049972;28;20053;-59
2023/04/25 11:10:06;;;;;;;3.70;2.63;;;;;;;;;;5049390;28;20029;-59
2023/04/25 11:12:32;;;;;;;5.18;3.25;;;;;;;;;;5046699;28;20053;-59
2023/04/25 11:15:00;;;;;;;4.40;3.22;;;;;;;;;;5047313;28;20041;-59
2023/04/25 11:17:28;;;;;;;3.60;2.78;;;;;;;;;;5052672;28;20048;-60
2023/04/25 11:19:55;;;;;;;3.85;2.60;;;;;;;;;;5051154;28;20045;-59
2023/04/25 11:22:22;;;;;;;3.65;2.70;;;;;;;;;;5048552;28;20049;-59
2023/04/25 11:24:48;;;;;;;13.05;6.50;;;;;;;;;;5052121;28;20044;-59
2023/04/25 11:27:14;;;;;;;7.38;3.72;;;;;;;;;;5052084;28;20164;-59
2023/04/25 11:29:41;;;;;;;2.58;2.30;;;;;;;;;;5049892;28;20053;-59
2023/04/25 11:32:07;;;;;;;2.25;2.00;;;;;;;;;;5046219;28;20376;-59
2023/04/25 11:34:34;;;;;;;3.47;2.70;;;;;;;;;;5046716;28;20053;-60
2023/04/25 11:37:02;;;;;;;4.57;3.15;;;;;;;;;;5046703;28;20388;-59
2023/04/25 11:39:28;;;;;;;5.43;3.13;;;;;;;;;;5045370;28;20414;-59
2023/04/25 11:41:55;;;;;;;1.83;1.73;;;;;;;;;;5044964;28;20052;-59
2023/04/25 11:44:22;;;;;;;2.75;2.10;;;;;;;;;;5053173;28;20040;-59
2023/04/25 11:46:48;;;;;;;3.10;2.40;;;;;;;;;;5046938;28;20406;-60
2023/04/25 11:49:15;;;;;;;2.20;1.80;;;;;;;;;;5055587;28;20044;-60
2023/04/25 11:51:45;;;;;;;1.20;1.20;;;;;;;;;;5047330;28;20034;-59
2023/04/25 11:54:12;;;;;;;1.58;1.48;;;;;;;;;;5056227;28;20041;-59
2023/04/25 11:56:45;;;;;;;1.77;1.67;;;;;;;;;;5052631;28;20498;-59
2023/04/25 11:59:12;;;;;;;1.77;1.67;;;;;;;;;;5052548;28;20033;-58
2023/04/25 12:01:40;;;;;;;1.90;1.80;;;;;;;;;;5053272;28;20072;-58
2023/04/25 12:04:18;;;;;;;1.77;1.67;;;;;;;;;;5055880;28;20036;-59
2023/04/25 12:06:48;;;;;;;1.67;1.58;;;;;;;;;;5046567;28;20036;-59
2023/04/25 12:09:17;;;;;;;2.13;1.92;;;;;;;;;;5051438;28;20037;-59
2023/04/25 12:11:45;;;;;;;2.67;1.65;;;;;;;;;;5042312;28;20529;-59
2023/04/25 12:14:33;;;;;;;1.77;1.67;;;;;;;;;;5054525;28;20036;-59
2023/04/25 12:17:01;;;;;;;2.10;1.90;;;;;;;;;;5050502;28;20119;-57
2023/04/25 12:19:35;;;;;;;1.48;1.38;;;;;;;;;;5050021;28;20057;-58
2023/04/25 12:22:03;;;;;;;1.50;1.38;;;;;;;;;;5047703;28;20032;-58
2023/04/25 12:24:29;;;;;;;2.08;1.88;;;;;;;;;;5050392;28;20404;-58
2023/04/25 12:27:00;;;;;;;2.10;1.90;;;;;;;;;;5047452;28;20576;-58
2023/04/25 12:29:29;;;;;;;1.67;1.58;;;;;;;;;;5052859;28;20036;-58
2023/04/25 12:31:55;;;;;;;1.73;1.63;;;;;;;;;;5050844;28;20049;-58
2023/04/25 12:34:22;;;;;;;1.83;1.73;;;;;;;;;;5043665;28;20036;-62
2023/04/25 12:36:50;;;;;;;1.60;1.50;;;;;;;;;;5042566;28;20041;-61
2023/04/25 12:39:16;;;;;;;3.50;2.30;;;;;;;;;;5045207;28;20041;-62
2023/04/25 12:41:43;;;;;;;2.55;2.30;;;;;;;;;;5046170;28;20041;-60
2023/04/25 12:44:10;;;;;;;2.28;1.67;;;;;;;;;;5052057;28;20044;-61
2023/04/25 12:46:37;;;;;;;1.80;1.70;;;;;;;;;;5046299;28;20052;-61
2023/04/25 12:49:06;;;;;;;2.13;1.92;;;;;;;;;;5048371;28;20059;-62
2023/04/25 12:51:32;;;;;;;5.88;2.72;;;;;;;;;;5048422;28;20040;-61
2023/04/25 12:54:00;;;;;;;10.73;4.20;;;;;;;;;;5053400;28;20040;-61
2023/04/25 12:56:27;;;;;;;4.22;3.03;;;;;;;;;;5052655;28;20051;-61
2023/04/25 12:58:53;;;;;;;3.63;2.72;;;;;;;;;;5053499;28;20064;-58
2023/04/25 13:01:23;;;;;;;2.63;2.05;;;;;;;;;;5053682;28;20028;-59
2023/04/25 13:03:50;;;;;;;4.82;3.03;;;;;;;;;;5047779;28;20032;-58
2023/04/25 13:06:17;;;;;;;4.75;3.40;;;;;;;;;;5051353;28;20037;-58
2023/04/25 13:08:44;;;;;;;2.20;2.00;;;;;;;;;;5053780;28;20032;-58
2023/04/25 13:11:11;;;;;;;3.22;2.60;;;;;;;;;;5054587;28;20490;-59
2023/04/25 13:13:37;;;;;;;2.80;2.25;;;;;;;;;;5047344;28;20025;-58
2023/04/25 13:16:04;;;;;;;3.47;2.60;;;;;;;;;;5047632;28;20040;-59
2023/04/25 13:18:31;;;;;;;2.65;2.22;;;;;;;;;;5048247;28;20029;-58
2023/04/25 13:20:59;;;;;;;4.30;2.80;;;;;;;;;;5049416;28;20405;-58
2023/04/25 13:23:27;;;;;;;2.63;2.40;;;;;;;;;;5049441;28;20033;-58
2023/04/25 13:25:55;;;;;;;2.40;2.20;;;;;;;;;;5045016;28;20033;-59
2023/04/25 13:28:21;;;;;;;2.42;2.15;;;;;;;;;;5047501;28;20033;-59
2023/04/25 13:30:47;;;;;;;2.70;2.50;;;;;;;;;;5052304;28;20047;-58
2023/04/25 13:33:14;;;;;;;2.67;2.22;;;;;;;;;;5044569;28;20033;-58
2023/04/25 13:35:42;;;;;;;2.60;2.40;;;;;;;;;;5044265;28;20048;-58
2023/04/25 13:38:08;;;;;;;2.72;2.53;;;;;;;;;;5042868;28;20431;-59
2023/04/25 13:40:35;;;;;;;2.80;2.50;;;;;;;;;;5045957;28;20044;-59
2023/04/25 13:43:01;;;;;;;3.80;2.67;;;;;;;;;;5045265;28;20079;-58
2023/04/25 13:45:28;;;;;;;4.07;2.92;;;;;;;;;;5030979;28;20033;-58
2023/04/25 13:47:54;;;;;;;3.40;3.10;;;;;;;;;;5047498;28;20443;-59
2023/04/25 13:50:21;;;;;;;4.15;2.92;;;;;;;;;;5050348;28;20048;-59
2023/04/25 13:52:47;;;;;;;3.55;2.95;;;;;;;;;;5051028;28;20049;-59
2023/04/25 13:55:13;;;;;;;5.35;3.70;;;;;;;;;;5051723;28;20502;-58
2023/04/25 13:57:39;;;;;;;39.97;21.52;;;;;;;;;;5048095;28;20036;-58
2023/04/25 14:00:08;;;;;;;14.73;9.43;;;;;;;;;;5053107;28;20048;-58
2023/04/25 14:02:35;;;;;;;4.82;3.55;;;;;;;;;;5050464;28;20576;-58
2023/04/25 14:05:03;;;;;;;3.60;2.75;;;;;;;;;;5052113;28;20056;-58
2023/04/25 14:07:30;;;;;;;3.67;3.00;;;;;;;;;;5055729;28;20041;-58
2023/04/25 14:09:59;;;;;;;4.13;2.80;;;;;;;;;;5053248;28;20035;-59
2023/04/25 14:12:26;;;;;;;2.78;2.58;;;;;;;;;;5050461;28;20037;-58
2023/04/25 14:14:52;;;;;;;2.72;2.30;;;;;;;;;;5044836;28;20051;-59
2023/04/25 14:17:19;;;;;;;3.65;2.88;;;;;;;;;;5049337;28;20050;-59
2023/04/25 14:19:47;;;;;;;3.40;3.10;;;;;;;;;;5049316;28;20403;-58
2023/04/25 14:22:17;;;;;;;3.63;2.88;;;;;;;;;;5047391;28;20044;-59
2023/04/25 14:24:43;;;;;;;3.00;2.70;;;;;;;;;;5044587;28;20033;-59
2023/04/25 14:27:10;;;;;;;3.60;3.03;;;;;;;;;;5046715;28;20038;-60
2023/04/25 14:29:36;;;;;;;3.83;3.40;;;;;;;;;;5041750;28;20394;-60
2023/04/25 14:32:02;;;;;;;4.55;3.33;;;;;;;;;;5044283;28;20415;-60
2023/04/25 14:34:28;;;;;;;4.28;3.33;;;;;;;;;;5041465;28;20045;-58
2023/04/25 14:36:55;;;;;;;4.05;3.47;;;;;;;;;;5041513;28;20026;-58
2023/04/25 14:39:21;;;;;;;4.63;3.42;;;;;;;;;;5044792;28;20044;-59
2023/04/25 14:41:47;;;;;;;7.55;4.20;;;;;;;;;;5044771;28;20041;-58
2023/04/25 14:44:13;;;;;;;5.15;3.45;;;;;;;;;;5044116;28;20668;-58
2023/04/25 14:46:39;;;;;;;4.88;3.92;;;;;;;;;;5040601;28;20033;-58
2023/04/25 14:49:06;;;;;;;5.25;4.05;;;;;;;;;;5045093;28;20044;-59
2023/04/25 14:51:32;;;;;;;6.55;4.03;;;;;;;;;;5039895;28;20056;-59